KPNS/PNS METAR and TAF weather

Enter ICAO airport designator
Station Type Date Time Source
KPNS METAR 2024/04/18 07:53 UTC NOAA

KPNS 180753Z AUTO 00000KT 10SM OVC008 21/19 A3006 RMK AO2 SLP182 T02110194


Station Type Date Time Source
KPNS Decoded METAR 2024/04/18 07:53 UTC NOAA

PENSACOLA REGIONAL AIRPORT, FL, United States (KPNS) 30-29N 087-11W 38M
Apr 18, 2024 - 03:53 AM EDT / 2024.04.18 0753 UTC
Wind: Calm:0
Visibility: 10 mile(s):0
Sky conditions: overcast
Temperature: 70.0 F (21.1 C)
Dew Point: 66.9 F (19.4 C)
Relative Humidity: 90%
Pressure (altimeter): 30.06 in. Hg (1017 hPa)
ob: KPNS 180753Z AUTO 00000KT 10SM OVC008 21/19 A3006 RMK AO2 SLP182 T02110194
cycle: 8

Station Type Date Time Source
KPNS TAF 2024/04/18 06:22 UTC NOAA